createdAt,value
2022-11-18T00:00:01.000Z,94818
2022-11-18T00:05:01.000Z,94836
2022-11-18T00:10:01.000Z,94862
2022-11-18T00:15:01.000Z,94869
2022-11-18T00:20:01.000Z,94886
2022-11-18T00:25:01.000Z,94898
2022-11-18T00:30:01.000Z,94884
2022-11-18T00:35:01.000Z,94891
2022-11-18T00:40:01.000Z,94890
2022-11-18T00:45:01.000Z,94896
2022-11-18T00:50:01.000Z,94909
2022-11-18T00:55:01.000Z,94913
2022-11-18T01:00:01.000Z,94917
2022-11-18T01:05:01.000Z,94914
2022-11-18T01:10:01.000Z,94929
2022-11-18T01:15:01.000Z,94924
2022-11-18T01:20:01.000Z,94930
2022-11-18T01:25:01.000Z,94941
2022-11-18T01:30:01.000Z,94957
2022-11-18T01:35:01.000Z,94975
2022-11-18T01:40:01.000Z,94978
2022-11-18T01:45:01.000Z,94974
2022-11-18T01:50:01.000Z,94982
2022-11-18T01:55:01.000Z,94991
2022-11-18T02:00:01.000Z,95001
2022-11-18T02:05:01.000Z,95006
2022-11-18T02:10:01.000Z,95001
2022-11-18T02:15:01.000Z,95000
2022-11-18T02:20:01.000Z,95007
2022-11-18T02:25:01.000Z,95002
2022-11-18T02:30:01.000Z,94992
2022-11-18T02:35:01.000Z,94997
2022-11-18T02:40:01.000Z,95002
2022-11-18T02:45:01.000Z,95002
2022-11-18T02:50:01.000Z,95006
2022-11-18T02:55:01.000Z,95008
2022-11-18T03:00:01.000Z,95008
2022-11-18T03:05:01.000Z,95025
2022-11-18T03:10:01.000Z,95022
2022-11-18T03:15:01.000Z,95029
2022-11-18T03:20:01.000Z,95027
2022-11-18T03:25:01.000Z,95036
2022-11-18T03:30:01.000Z,95047
2022-11-18T03:35:01.000Z,95047
2022-11-18T03:40:01.000Z,95055
2022-11-18T03:45:01.000Z,95061
2022-11-18T03:50:01.000Z,95073
2022-11-18T03:55:01.000Z,95075
2022-11-18T04:00:01.000Z,95089
2022-11-18T04:05:01.000Z,95088
2022-11-18T04:10:01.000Z,95081
2022-11-18T04:15:01.000Z,95095
2022-11-18T04:20:01.000Z,95094
2022-11-18T04:25:01.000Z,95101
2022-11-18T04:30:01.000Z,95107
2022-11-18T04:35:01.000Z,95108
2022-11-18T04:40:01.000Z,95110
2022-11-18T04:45:01.000Z,95115
2022-11-18T04:50:01.000Z,95120
2022-11-18T04:55:01.000Z,95126
2022-11-18T05:00:01.000Z,95129
2022-11-18T05:05:01.000Z,95140
2022-11-18T05:10:01.000Z,95148
2022-11-18T05:15:01.000Z,95162
2022-11-18T05:20:01.000Z,95176
2022-11-18T05:25:01.000Z,95187
2022-11-18T05:30:01.000Z,95188
2022-11-18T05:35:01.000Z,95192
2022-11-18T05:40:01.000Z,95197
2022-11-18T05:45:01.000Z,95201
2022-11-18T05:50:01.000Z,95211
2022-11-18T05:55:01.000Z,95222
2022-11-18T06:00:01.000Z,95233
2022-11-18T06:05:01.000Z,95229
2022-11-18T06:10:01.000Z,95237
2022-11-18T06:15:01.000Z,95245
2022-11-18T06:20:01.000Z,95255
2022-11-18T06:25:01.000Z,95254
2022-11-18T06:30:01.000Z,95255
2022-11-18T06:35:01.000Z,95264
2022-11-18T06:40:01.000Z,95270
2022-11-18T06:45:01.000Z,95268
2022-11-18T06:50:01.000Z,95287
2022-11-18T06:55:01.000Z,95286
2022-11-18T07:00:01.000Z,95292
2022-11-18T07:05:01.000Z,95290
2022-11-18T07:10:01.000Z,95302
2022-11-18T07:15:01.000Z,95298
2022-11-18T07:20:01.000Z,95302
2022-11-18T07:25:01.000Z,95317
2022-11-18T07:30:01.000Z,95318
2022-11-18T07:35:01.000Z,95332
2022-11-18T07:40:01.000Z,95339
2022-11-18T07:45:01.000Z,95344
2022-11-18T07:50:01.000Z,95347
2022-11-18T07:55:01.000Z,95353
2022-11-18T08:00:01.000Z,95356
2022-11-18T08:05:01.000Z,95355
2022-11-18T08:10:01.000Z,95358
2022-11-18T08:15:01.000Z,95351
2022-11-18T08:20:01.000Z,95363
2022-11-18T08:25:01.000Z,95365
2022-11-18T08:30:01.000Z,95370
2022-11-18T08:35:01.000Z,95376
2022-11-18T08:40:01.000Z,95394
2022-11-18T08:45:01.000Z,95392
2022-11-18T08:50:01.000Z,95398
2022-11-18T08:55:01.000Z,95401
2022-11-18T09:00:01.000Z,95412
2022-11-18T09:05:01.000Z,95403
2022-11-18T09:10:01.000Z,95413
2022-11-18T09:15:01.000Z,95407
2022-11-18T09:20:01.000Z,95417
2022-11-18T09:25:01.000Z,95421
2022-11-18T09:30:01.000Z,95416
2022-11-18T09:35:01.000Z,95432
2022-11-18T09:40:01.000Z,95438
2022-11-18T09:45:01.000Z,95442
2022-11-18T09:50:01.000Z,95457
2022-11-18T09:55:01.000Z,95465
2022-11-18T10:00:01.000Z,95464
2022-11-18T10:05:01.000Z,95468
2022-11-18T10:10:01.000Z,95464
2022-11-18T10:15:01.000Z,95471
2022-11-18T10:20:01.000Z,95469
2022-11-18T10:25:01.000Z,95479
2022-11-18T10:30:01.000Z,95474
2022-11-18T10:35:01.000Z,95484
2022-11-18T10:40:01.000Z,95482
2022-11-18T10:45:01.000Z,95480
2022-11-18T10:50:01.000Z,95491
2022-11-18T10:55:01.000Z,95480
2022-11-18T11:00:01.000Z,95484
2022-11-18T11:05:01.000Z,95482
2022-11-18T11:10:01.000Z,95478
2022-11-18T11:15:01.000Z,95475
2022-11-18T11:20:01.000Z,95478
2022-11-18T11:25:01.000Z,95470
2022-11-18T11:30:01.000Z,95478
2022-11-18T11:35:01.000Z,95482
2022-11-18T11:40:01.000Z,95484
2022-11-18T11:45:01.000Z,95465
2022-11-18T11:50:01.000Z,95462
2022-11-18T11:55:01.000Z,95471
2022-11-18T12:00:01.000Z,95465
2022-11-18T12:05:01.000Z,95470
2022-11-18T12:10:01.000Z,95468
2022-11-18T12:15:01.000Z,95470
2022-11-18T12:20:01.000Z,95458
2022-11-18T12:25:01.000Z,95475
2022-11-18T12:30:01.000Z,95478
2022-11-18T12:35:01.000Z,95481
2022-11-18T12:40:01.000Z,95478
2022-11-18T12:45:01.000Z,95482
2022-11-18T12:50:01.000Z,95485
2022-11-18T12:55:01.000Z,95486
2022-11-18T13:00:01.000Z,95477
2022-11-18T13:05:01.000Z,95478
2022-11-18T13:10:01.000Z,95492
2022-11-18T13:15:01.000Z,95474
2022-11-18T13:20:01.000Z,95490
2022-11-18T13:25:01.000Z,95490
2022-11-18T13:30:01.000Z,95483
2022-11-18T13:35:01.000Z,95483
2022-11-18T13:40:01.000Z,95481
2022-11-18T13:45:01.000Z,95491
2022-11-18T13:50:01.000Z,95482
2022-11-18T13:55:01.000Z,95480
2022-11-18T14:00:01.000Z,95476
2022-11-18T14:05:01.000Z,95482
2022-11-18T14:10:01.000Z,95483
2022-11-18T14:15:01.000Z,95485
2022-11-18T14:20:01.000Z,95486
2022-11-18T14:25:01.000Z,95501
2022-11-18T14:30:01.000Z,95497
2022-11-18T14:35:01.000Z,95490
2022-11-18T14:40:01.000Z,95485
2022-11-18T14:45:01.000Z,95504
2022-11-18T14:50:01.000Z,95500
2022-11-18T14:55:01.000Z,95495
2022-11-18T15:00:01.000Z,95498
2022-11-18T15:05:01.000Z,95511
2022-11-18T15:10:01.000Z,95510
2022-11-18T15:15:01.000Z,95505
2022-11-18T15:20:01.000Z,95509
2022-11-18T15:25:01.000Z,95506
2022-11-18T15:30:01.000Z,95510
2022-11-18T15:35:01.000Z,95519
2022-11-18T15:40:01.000Z,95525
2022-11-18T15:45:01.000Z,95524
2022-11-18T15:50:01.000Z,95534
2022-11-18T15:55:01.000Z,95525
2022-11-18T16:00:01.000Z,95538
2022-11-18T16:05:01.000Z,95541
2022-11-18T16:10:01.000Z,95541
2022-11-18T16:15:01.000Z,95551
2022-11-18T16:20:01.000Z,95550
2022-11-18T16:25:01.000Z,95554
2022-11-18T16:30:01.000Z,95567
2022-11-18T16:35:01.000Z,95565
2022-11-18T16:40:01.000Z,95566
2022-11-18T16:45:01.000Z,95574
2022-11-18T16:50:01.000Z,95578
2022-11-18T16:55:01.000Z,95585
2022-11-18T17:00:01.000Z,95584
2022-11-18T17:05:01.000Z,95595
2022-11-18T17:10:01.000Z,95600
2022-11-18T17:15:01.000Z,95598
2022-11-18T17:20:01.000Z,95604
2022-11-18T17:25:01.000Z,95612
2022-11-18T17:30:01.000Z,95617
2022-11-18T17:35:01.000Z,95624
2022-11-18T17:40:01.000Z,95626
2022-11-18T17:45:01.000Z,95644
2022-11-18T17:50:01.000Z,95635
2022-11-18T17:55:01.000Z,95645
2022-11-18T18:00:01.000Z,95654
2022-11-18T18:05:01.000Z,95644
2022-11-18T18:10:01.000Z,95651
2022-11-18T18:15:01.000Z,95647
2022-11-18T18:20:01.000Z,95650
2022-11-18T18:25:01.000Z,95658
2022-11-18T18:30:01.000Z,95670
2022-11-18T18:35:01.000Z,95669
2022-11-18T18:40:01.000Z,95668
2022-11-18T18:45:01.000Z,95676
2022-11-18T18:50:02.000Z,95675
2022-11-18T18:55:02.000Z,95676
2022-11-18T19:00:02.000Z,95678
2022-11-18T19:05:02.000Z,95671
2022-11-18T19:10:02.000Z,95669
2022-11-18T19:15:02.000Z,95667
2022-11-18T19:20:02.000Z,95681
2022-11-18T19:25:02.000Z,95682
2022-11-18T19:30:02.000Z,95684
2022-11-18T19:35:02.000Z,95691
2022-11-18T19:40:02.000Z,95686
2022-11-18T19:45:02.000Z,95692
2022-11-18T19:50:02.000Z,95696
2022-11-18T19:55:02.000Z,95694
2022-11-18T20:00:02.000Z,95682
2022-11-18T20:05:02.000Z,95686
2022-11-18T20:10:02.000Z,95679
2022-11-18T20:15:02.000Z,95686
2022-11-18T20:20:02.000Z,95674
2022-11-18T20:25:02.000Z,95680
2022-11-18T20:30:02.000Z,95675
2022-11-18T20:35:02.000Z,95677
2022-11-18T20:40:02.000Z,95678
2022-11-18T20:45:02.000Z,95685
2022-11-18T20:50:02.000Z,95693
2022-11-18T20:55:02.000Z,95691
2022-11-18T21:00:02.000Z,95698
2022-11-18T21:05:02.000Z,95705
2022-11-18T21:10:02.000Z,95695
2022-11-18T21:15:02.000Z,95682
2022-11-18T21:20:02.000Z,95694
2022-11-18T21:25:02.000Z,95706
2022-11-18T21:30:02.000Z,95698
2022-11-18T21:35:02.000Z,95710
2022-11-18T21:40:02.000Z,95710
2022-11-18T21:45:02.000Z,95721
2022-11-18T21:50:02.000Z,95719
2022-11-18T21:55:02.000Z,95711
2022-11-18T22:00:02.000Z,95712
2022-11-18T22:05:02.000Z,95711
2022-11-18T22:10:02.000Z,95730
2022-11-18T22:15:02.000Z,95730
2022-11-18T22:20:02.000Z,95722
2022-11-18T22:25:02.000Z,95724
2022-11-18T22:30:02.000Z,95728
2022-11-18T22:35:02.000Z,95728
2022-11-18T22:40:02.000Z,95722
2022-11-18T22:45:02.000Z,95723
2022-11-18T22:50:02.000Z,95713
2022-11-18T22:55:02.000Z,95706
2022-11-18T23:00:02.000Z,95716
2022-11-18T23:05:02.000Z,95710
2022-11-18T23:10:02.000Z,95710
2022-11-18T23:15:02.000Z,95705
2022-11-18T23:20:02.000Z,95711
2022-11-18T23:25:02.000Z,95714
2022-11-18T23:30:02.000Z,95708
2022-11-18T23:35:02.000Z,95710
2022-11-18T23:40:02.000Z,95717
2022-11-18T23:45:02.000Z,95726
2022-11-18T23:50:02.000Z,95718
2022-11-18T23:55:02.000Z,95718
